Time;durP1;ratioP1;P1;durP2;ratioP2;P2;SDS_P1;SDS_P2;PMS_P1;PMS_P2;Temp;Humidity;BMP_temperature;BMP_pressure;BME280_temperature;BME280_humidity;BME280_pressure;Samples;Min_cycle;Max_cycle;Signal;HPM_P1;HPM_P2
2022/08/20 00:00:59;;;;;;;7.55;6.28;;;;;;;;;;5071577;28;20257;-84
2022/08/20 00:03:29;;;;;;;7.53;6.00;;;;;;;;;;5072578;28;20265;-84
2022/08/20 00:05:58;;;;;;;8.63;6.80;;;;;;;;;;5071985;28;20233;-84
2022/08/20 00:08:26;;;;;;;7.00;5.95;;;;;;;;;;5072278;28;20212;-84
2022/08/20 00:10:55;;;;;;;6.38;5.25;;;;;;;;;;5071520;28;20240;-84
2022/08/20 00:13:25;;;;;;;7.78;5.55;;;;;;;;;;5071502;28;20225;-84
2022/08/20 00:15:52;;;;;;;6.45;5.85;;;;;;;;;;5071843;28;20792;-84
2022/08/20 00:18:19;;;;;;;9.18;6.13;;;;;;;;;;5072324;28;20209;-84
2022/08/20 00:20:48;;;;;;;6.55;5.95;;;;;;;;;;5071674;28;20229;-84
2022/08/20 00:23:16;;;;;;;7.15;5.72;;;;;;;;;;5071890;28;20584;-84
2022/08/20 00:25:44;;;;;;;7.15;5.40;;;;;;;;;;5071721;28;20636;-84
2022/08/20 00:28:12;;;;;;;8.48;5.20;;;;;;;;;;5071970;28;20197;-84
2022/08/20 00:30:41;;;;;;;5.88;5.38;;;;;;;;;;5071410;28;20233;-84
2022/08/20 00:33:09;;;;;;;7.25;5.47;;;;;;;;;;5071778;28;20233;-84
2022/08/20 00:35:38;;;;;;;6.05;5.45;;;;;;;;;;5071348;28;20237;-84
2022/08/20 00:38:05;;;;;;;6.13;5.53;;;;;;;;;;5071608;28;20687;-84
2022/08/20 00:40:36;;;;;;;5.90;5.35;;;;;;;;;;5071450;28;20233;-84
2022/08/20 00:43:04;;;;;;;10.10;5.88;;;;;;;;;;5071264;28;20633;-84
2022/08/20 00:45:33;;;;;;;5.55;5.05;;;;;;;;;;5071441;28;20257;-84
2022/08/20 00:48:01;;;;;;;6.38;5.15;;;;;;;;;;5071686;28;20220;-84
2022/08/20 00:50:32;;;;;;;6.78;5.13;;;;;;;;;;5071299;28;20235;-84
2022/08/20 00:53:01;;;;;;;5.90;5.38;;;;;;;;;;5071629;28;20234;-83
2022/08/20 00:55:29;;;;;;;7.22;5.30;;;;;;;;;;5078963;28;20233;-85
2022/08/20 00:57:58;;;;;;;5.93;5.35;;;;;;;;;;5072041;28;20205;-84
2022/08/20 01:00:26;;;;;;;6.45;5.50;;;;;;;;;;5070383;28;20225;-84
2022/08/20 01:02:53;;;;;;;5.97;5.45;;;;;;;;;;5071410;28;20256;-84
2022/08/20 01:05:23;;;;;;;6.00;5.40;;;;;;;;;;5071007;28;20708;-84
2022/08/20 01:07:52;;;;;;;6.68;5.70;;;;;;;;;;5068490;28;20297;-84
2022/08/20 01:10:21;;;;;;;6.63;5.63;;;;;;;;;;5055545;28;20312;-84
2022/08/20 01:12:49;;;;;;;9.57;5.82;;;;;;;;;;5051064;28;20226;-84
2022/08/20 01:15:17;;;;;;;8.02;5.72;;;;;;;;;;5051023;28;20593;-83
2022/08/20 01:17:46;;;;;;;6.80;6.20;;;;;;;;;;5051376;28;20257;-84
2022/08/20 01:20:16;;;;;;;7.15;5.90;;;;;;;;;;5068288;28;20735;-84
2022/08/20 01:25:35;;;;;;;7.50;5.63;;;;;;;;;;5074729;28;20239;-84
2022/08/20 01:28:04;;;;;;;6.88;6.18;;;;;;;;;;5074867;28;20650;-83
2022/08/20 01:30:32;;;;;;;6.97;5.63;;;;;;;;;;5074407;28;20240;-83
2022/08/20 01:33:01;;;;;;;6.65;5.82;;;;;;;;;;5074682;28;20229;-84
2022/08/20 01:35:29;;;;;;;7.25;6.03;;;;;;;;;;5074733;28;20636;-84
2022/08/20 01:37:56;;;;;;;7.07;5.93;;;;;;;;;;5074309;28;20197;-84
2022/08/20 01:40:28;;;;;;;8.27;6.07;;;;;;;;;;5074692;28;20663;-84
2022/08/20 01:42:55;;;;;;;9.05;5.93;;;;;;;;;;5074568;28;20272;-84
2022/08/20 01:45:26;;;;;;;6.43;5.68;;;;;;;;;;5073551;28;20251;-84
2022/08/20 01:47:53;;;;;;;9.20;6.05;;;;;;;;;;5074551;28;20266;-84
2022/08/20 01:50:23;;;;;;;7.60;5.97;;;;;;;;;;5074208;28;20740;-84
2022/08/20 01:52:53;;;;;;;8.05;5.90;;;;;;;;;;5074404;28;20721;-84
2022/08/20 01:55:20;;;;;;;7.00;6.07;;;;;;;;;;5073985;28;20248;-83
2022/08/20 01:57:48;;;;;;;6.90;6.20;;;;;;;;;;5074432;28;20216;-84
2022/08/20 02:00:18;;;;;;;6.50;5.78;;;;;;;;;;5073826;28;20238;-84
2022/08/20 02:02:48;;;;;;;7.82;5.78;;;;;;;;;;5075988;28;20226;-83
2022/08/20 02:05:15;;;;;;;7.47;6.70;;;;;;;;;;5073849;28;20716;-84
2022/08/20 02:07:42;;;;;;;7.05;6.07;;;;;;;;;;5074369;28;20688;-83
2022/08/20 02:10:10;;;;;;;8.02;6.35;;;;;;;;;;5073882;28;20236;-84
2022/08/20 02:12:38;;;;;;;8.98;6.00;;;;;;;;;;5073368;28;20247;-83
2022/08/20 02:15:09;;;;;;;7.00;6.40;;;;;;;;;;5073843;28;20239;-84
2022/08/20 02:17:37;;;;;;;8.68;6.53;;;;;;;;;;5074220;28;20235;-84
2022/08/20 02:20:09;;;;;;;8.85;6.28;;;;;;;;;;5073535;28;20229;-83
2022/08/20 02:22:38;;;;;;;6.95;6.25;;;;;;;;;;5073943;28;20251;-84
2022/08/20 02:25:06;;;;;;;6.85;6.13;;;;;;;;;;5073402;28;20241;-84
2022/08/20 02:27:33;;;;;;;6.85;6.00;;;;;;;;;;5074099;28;20696;-83
2022/08/20 02:30:01;;;;;;;7.05;6.35;;;;;;;;;;5073537;28;20717;-83
2022/08/20 02:32:28;;;;;;;7.60;6.25;;;;;;;;;;5073513;28;20229;-84
2022/08/20 02:34:55;;;;;;;6.80;6.15;;;;;;;;;;5072495;28;20236;-84
2022/08/20 02:37:24;;;;;;;7.30;6.28;;;;;;;;;;5074006;28;20209;-83
2022/08/20 02:39:51;;;;;;;6.95;6.03;;;;;;;;;;5073327;28;20214;-84
2022/08/20 02:42:18;;;;;;;8.45;6.75;;;;;;;;;;5073385;28;20550;-84
2022/08/20 02:44:45;;;;;;;7.82;7.07;;;;;;;;;;5098683;22;20242;-81
2022/08/20 02:47:12;;;;;;;9.27;6.57;;;;;;;;;;5077337;28;20202;-83
2022/08/20 02:49:39;;;;;;;8.90;7.22;;;;;;;;;;5077681;28;20560;-84
2022/08/20 02:52:06;;;;;;;9.68;6.60;;;;;;;;;;5077873;28;20221;-83
2022/08/20 02:54:34;;;;;;;7.15;6.40;;;;;;;;;;5076539;28;20228;-84
2022/08/20 02:57:02;;;;;;;7.50;6.57;;;;;;;;;;5076900;28;20208;-83
2022/08/20 02:59:29;;;;;;;9.57;7.15;;;;;;;;;;5077380;28;20291;-84
2022/08/20 03:01:57;;;;;;;9.75;7.90;;;;;;;;;;5076484;28;20237;-84
2022/08/20 03:04:24;;;;;;;7.43;6.60;;;;;;;;;;5077569;28;20305;-83
2022/08/20 03:06:51;;;;;;;8.93;6.78;;;;;;;;;;5077030;28;20605;-84
2022/08/20 03:09:19;;;;;;;8.40;6.93;;;;;;;;;;5077377;28;20205;-84
2022/08/20 03:11:47;;;;;;;8.85;6.28;;;;;;;;;;5079561;28;20240;-83
2022/08/20 03:14:14;;;;;;;6.72;6.03;;;;;;;;;;5078129;28;20316;-83
2022/08/20 03:16:41;;;;;;;7.45;6.70;;;;;;;;;;5077254;28;20646;-83
2022/08/20 03:19:09;;;;;;;7.32;6.63;;;;;;;;;;5077327;28;20252;-84
2022/08/20 03:21:36;;;;;;;8.18;6.60;;;;;;;;;;5076345;28;20236;-84
2022/08/20 03:24:03;;;;;;;10.40;6.68;;;;;;;;;;5077098;28;20228;-83
2022/08/20 03:26:30;;;;;;;7.55;6.57;;;;;;;;;;5076910;28;20245;-84
2022/08/20 03:28:58;;;;;;;7.13;6.40;;;;;;;;;;5080179;28;20220;-84
2022/08/20 03:31:25;;;;;;;7.00;6.13;;;;;;;;;;5076505;28;20233;-83
2022/08/20 03:33:52;;;;;;;9.02;6.65;;;;;;;;;;5076787;28;20579;-83
2022/08/20 03:36:19;;;;;;;7.03;6.32;;;;;;;;;;5077840;28;20244;-84
2022/08/20 03:38:46;;;;;;;8.23;7.38;;;;;;;;;;5075476;28;20209;-84
2022/08/20 03:41:13;;;;;;;9.13;6.63;;;;;;;;;;5073607;28;20727;-83
2022/08/20 03:43:41;;;;;;;7.68;6.95;;;;;;;;;;5073668;28;20324;-84
2022/08/20 03:46:10;;;;;;;11.38;6.82;;;;;;;;;;5074576;28;20256;-83
2022/08/20 03:48:37;;;;;;;7.88;6.78;;;;;;;;;;5076121;28;20201;-84
2022/08/20 03:51:04;;;;;;;7.43;6.50;;;;;;;;;;5076388;28;20244;-84
2022/08/20 03:53:31;;;;;;;7.53;6.60;;;;;;;;;;5075890;28;20236;-83
2022/08/20 03:56:00;;;;;;;7.45;6.47;;;;;;;;;;5080507;28;20229;-84
2022/08/20 03:58:28;;;;;;;6.72;5.97;;;;;;;;;;5076965;28;20224;-84
2022/08/20 04:00:55;;;;;;;7.07;6.10;;;;;;;;;;5075944;28;20720;-85
2022/08/20 04:03:25;;;;;;;8.02;6.38;;;;;;;;;;5077164;28;20224;-84
2022/08/20 04:05:52;;;;;;;8.40;6.07;;;;;;;;;;5075122;28;20237;-84
2022/08/20 04:08:21;;;;;;;9.10;6.13;;;;;;;;;;5076954;28;20577;-84
2022/08/20 04:10:49;;;;;;;7.18;6.22;;;;;;;;;;5074547;28;20237;-84
2022/08/20 04:13:17;;;;;;;7.95;5.80;;;;;;;;;;5074881;28;20233;-84
2022/08/20 04:15:44;;;;;;;7.13;6.30;;;;;;;;;;5074365;28;20233;-84
2022/08/20 04:18:12;;;;;;;12.48;5.47;;;;;;;;;;5075207;28;20227;-84
2022/08/20 04:20:42;;;;;;;7.07;5.93;;;;;;;;;;5074730;28;20236;-85
2022/08/20 04:23:09;;;;;;;6.20;5.07;;;;;;;;;;5075135;28;20243;-83
2022/08/20 04:25:40;;;;;;;8.27;5.15;;;;;;;;;;5074351;28;20236;-84
2022/08/20 04:28:08;;;;;;;6.88;5.45;;;;;;;;;;5076207;28;20244;-84
2022/08/20 04:30:35;;;;;;;7.65;5.35;;;;;;;;;;5075523;28;20259;-84
2022/08/20 04:33:02;;;;;;;7.80;5.63;;;;;;;;;;5075919;28;20237;-84
2022/08/20 04:35:30;;;;;;;5.70;5.10;;;;;;;;;;5077086;28;20235;-84
2022/08/20 04:38:01;;;;;;;6.85;4.53;;;;;;;;;;5076458;28;20261;-83
2022/08/20 04:43:14;;;;;;;5.28;4.78;;;;;;;;;;5077751;28;20232;-86
2022/08/20 04:45:41;;;;;;;7.70;4.95;;;;;;;;;;5076709;28;20239;-84
2022/08/20 04:48:08;;;;;;;8.43;4.88;;;;;;;;;;5077482;28;20197;-84
2022/08/20 04:50:36;;;;;;;8.18;5.88;;;;;;;;;;5076749;28;20229;-84
2022/08/20 04:53:06;;;;;;;6.85;6.15;;;;;;;;;;5076579;28;20240;-83
2022/08/20 04:55:37;;;;;;;6.50;5.88;;;;;;;;;;5076803;28;20233;-83
2022/08/20 04:58:05;;;;;;;8.07;6.00;;;;;;;;;;5076879;28;20374;-83
2022/08/20 05:00:32;;;;;;;7.43;6.38;;;;;;;;;;5079793;28;20233;-84
2022/08/20 05:02:59;;;;;;;6.10;5.47;;;;;;;;;;5080246;28;20208;-83
2022/08/20 05:05:27;;;;;;;7.63;5.30;;;;;;;;;;5079592;28;20248;-84
2022/08/20 05:07:54;;;;;;;4.93;4.32;;;;;;;;;;5080392;28;20202;-84
2022/08/20 05:10:24;;;;;;;6.75;4.25;;;;;;;;;;5081036;28;20240;-84
2022/08/20 05:12:51;;;;;;;4.50;3.47;;;;;;;;;;5080659;28;20312;-85
2022/08/20 05:15:18;;;;;;;4.13;3.72;;;;;;;;;;5079472;28;20570;-84
2022/08/20 05:17:45;;;;;;;3.75;3.38;;;;;;;;;;5080986;28;20212;-84
2022/08/20 05:20:15;;;;;;;4.03;3.63;;;;;;;;;;5079808;28;20720;-83
2022/08/20 05:22:45;;;;;;;4.63;3.58;;;;;;;;;;5077361;28;20201;-85
2022/08/20 05:25:12;;;;;;;4.15;3.75;;;;;;;;;;5074675;28;20240;-85
2022/08/20 05:27:41;;;;;;;3.60;3.28;;;;;;;;;;5077258;28;20205;-84
2022/08/20 05:30:09;;;;;;;3.88;3.45;;;;;;;;;;5076960;28;20256;-84
2022/08/20 05:32:37;;;;;;;3.88;3.53;;;;;;;;;;5077561;28;20240;-84
2022/08/20 05:35:04;;;;;;;4.07;3.10;;;;;;;;;;5081762;28;20241;-84
2022/08/20 05:37:31;;;;;;;3.20;2.97;;;;;;;;;;5062947;28;20202;-85
2022/08/20 05:39:58;;;;;;;3.53;3.22;;;;;;;;;;5056173;28;20772;-84
2022/08/20 05:42:27;;;;;;;3.92;3.20;;;;;;;;;;5056631;28;20206;-84
2022/08/20 05:44:56;;;;;;;3.25;2.95;;;;;;;;;;5056814;28;20234;-85
2022/08/20 05:47:27;;;;;;;3.47;3.15;;;;;;;;;;5057058;28;20206;-84
2022/08/20 05:49:54;;;;;;;3.40;3.10;;;;;;;;;;5056656;28;20675;-84
2022/08/20 05:52:21;;;;;;;3.67;3.38;;;;;;;;;;5056855;28;20222;-84
2022/08/20 05:54:49;;;;;;;5.72;3.15;;;;;;;;;;5057252;28;20575;-84
2022/08/20 05:57:18;;;;;;;4.22;3.15;;;;;;;;;;5057842;28;20554;-84
2022/08/20 05:59:46;;;;;;;5.10;3.03;;;;;;;;;;5057870;28;20624;-85
2022/08/20 06:04:59;;;;;;;6.57;2.88;;;;;;;;;;5057787;28;20240;-83
2022/08/20 06:07:27;;;;;;;3.08;2.70;;;;;;;;;;5056692;28;20297;-82
2022/08/20 06:09:54;;;;;;;3.28;2.97;;;;;;;;;;5055638;28;20236;-83
2022/08/20 06:12:21;;;;;;;3.17;2.88;;;;;;;;;;5057611;28;20238;-82
2022/08/20 06:14:48;;;;;;;3.13;2.83;;;;;;;;;;5071651;28;20597;-82
2022/08/20 06:17:19;;;;;;;5.80;3.30;;;;;;;;;;5077996;28;20259;-83
2022/08/20 06:19:47;;;;;;;3.67;3.35;;;;;;;;;;5081194;28;20193;-82
2022/08/20 06:22:16;;;;;;;4.43;2.80;;;;;;;;;;5092216;28;20292;-82
2022/08/20 06:24:43;;;;;;;3.10;2.85;;;;;;;;;;5083133;28;20237;-84
2022/08/20 06:27:13;;;;;;;3.55;2.90;;;;;;;;;;5079424;28;20273;-83
2022/08/20 06:29:40;;;;;;;3.20;2.70;;;;;;;;;;5078689;28;20201;-82
2022/08/20 06:32:07;;;;;;;3.28;2.97;;;;;;;;;;5077777;28;20212;-83
2022/08/20 06:34:36;;;;;;;3.30;3.00;;;;;;;;;;5077104;28;20224;-80
2022/08/20 06:37:03;;;;;;;6.13;3.30;;;;;;;;;;5076871;28;20203;-80
2022/08/20 06:39:30;;;;;;;4.88;3.30;;;;;;;;;;5076128;28;20200;-81
2022/08/20 06:41:58;;;;;;;3.33;3.03;;;;;;;;;;5078244;28;20217;-82
2022/08/20 06:44:27;;;;;;;4.40;3.10;;;;;;;;;;5078333;28;20236;-82
2022/08/20 06:46:55;;;;;;;3.92;3.20;;;;;;;;;;5077533;28;20308;-82
2022/08/20 06:49:22;;;;;;;3.88;3.20;;;;;;;;;;5078599;28;20201;-82
2022/08/20 06:51:50;;;;;;;3.17;2.88;;;;;;;;;;5076726;28;20704;-82
2022/08/20 06:54:17;;;;;;;4.60;3.05;;;;;;;;;;5076986;28;20232;-82
2022/08/20 06:56:44;;;;;;;4.35;3.03;;;;;;;;;;5076085;28;20244;-82
2022/08/20 06:59:11;;;;;;;3.05;2.80;;;;;;;;;;5076406;28;20216;-82
2022/08/20 07:01:38;;;;;;;4.68;2.97;;;;;;;;;;5074983;28;20229;-82
2022/08/20 07:04:06;;;;;;;4.22;2.75;;;;;;;;;;5080822;28;20225;-81
2022/08/20 07:06:33;;;;;;;3.38;2.80;;;;;;;;;;5071851;28;20644;-81
2022/08/20 07:09:01;;;;;;;4.47;3.13;;;;;;;;;;5057481;28;20290;-82
2022/08/20 07:11:28;;;;;;;3.72;3.33;;;;;;;;;;5055104;28;20234;-82
2022/08/20 07:13:56;;;;;;;4.20;3.10;;;;;;;;;;5056460;28;20237;-82
2022/08/20 07:16:23;;;;;;;5.35;3.40;;;;;;;;;;5055181;28;20264;-81
2022/08/20 07:18:51;;;;;;;3.47;3.15;;;;;;;;;;5076250;28;20197;-82
2022/08/20 07:21:18;;;;;;;3.80;3.50;;;;;;;;;;5079612;28;20237;-81
2022/08/20 07:23:47;;;;;;;3.92;3.13;;;;;;;;;;5079846;28;20213;-81
2022/08/20 07:26:16;;;;;;;3.53;3.10;;;;;;;;;;5075896;28;20753;-82
2022/08/20 07:28:43;;;;;;;4.38;3.35;;;;;;;;;;5075703;28;20202;-82
2022/08/20 07:33:51;;;;;;;5.15;4.75;;;;;;;;;;5052808;28;20777;-82
2022/08/20 07:36:18;;;;;;;5.28;4.75;;;;;;;;;;5075995;28;20221;-82
2022/08/20 07:38:46;;;;;;;5.30;4.80;;;;;;;;;;5076316;28;20688;-81
2022/08/20 07:41:14;;;;;;;8.85;6.40;;;;;;;;;;5075876;28;20240;-79
2022/08/20 07:43:44;;;;;;;6.80;5.78;;;;;;;;;;5076175;28;20225;-81
2022/08/20 07:46:11;;;;;;;6.28;5.25;;;;;;;;;;5075344;28;20237;-81
2022/08/20 07:48:40;;;;;;;7.28;6.57;;;;;;;;;;5076269;28;20210;-82
2022/08/20 07:51:09;;;;;;;6.20;5.70;;;;;;;;;;5075794;28;20241;-80
2022/08/20 07:53:37;;;;;;;7.50;6.80;;;;;;;;;;5075970;28;20320;-81
2022/08/20 07:56:05;;;;;;;7.30;6.60;;;;;;;;;;5075102;28;20260;-81
2022/08/20 07:58:34;;;;;;;7.55;6.82;;;;;;;;;;5075855;28;20537;-81
2022/08/20 08:01:02;;;;;;;8.80;7.47;;;;;;;;;;5074921;28;20238;-81
2022/08/20 08:03:30;;;;;;;8.52;7.65;;;;;;;;;;5074773;28;20224;-80
2022/08/20 08:05:58;;;;;;;9.90;7.90;;;;;;;;;;5075112;28;20241;-81
2022/08/20 08:08:27;;;;;;;8.90;8.10;;;;;;;;;;5081908;28;20193;-81
2022/08/20 08:10:57;;;;;;;9.10;8.18;;;;;;;;;;5088396;28;20784;-81
2022/08/20 08:13:26;;;;;;;8.95;8.10;;;;;;;;;;5097779;28;20224;-82
2022/08/20 08:15:56;;;;;;;8.50;7.70;;;;;;;;;;5081201;28;20264;-82
2022/08/20 08:18:26;;;;;;;9.00;8.15;;;;;;;;;;5077134;28;20288;-82
2022/08/20 08:20:54;;;;;;;9.63;8.63;;;;;;;;;;5081224;28;20239;-81
2022/08/20 08:23:22;;;;;;;9.48;7.60;;;;;;;;;;5076663;28;20221;-77
2022/08/20 08:25:50;;;;;;;7.43;6.70;;;;;;;;;;5076251;28;20335;-80
2022/08/20 08:28:17;;;;;;;6.97;6.32;;;;;;;;;;5077213;28;20699;-80
2022/08/20 08:30:46;;;;;;;4.93;4.53;;;;;;;;;;5075374;28;20229;-80
2022/08/20 08:33:29;;;;;;;5.07;4.57;;;;;;;;;;5073230;28;20240;-80
2022/08/20 08:35:58;;;;;;;5.32;4.93;;;;;;;;;;5074140;28;20233;-79
2022/08/20 08:38:25;;;;;;;4.93;4.50;;;;;;;;;;5074136;28;20592;-80
2022/08/20 08:40:53;;;;;;;6.40;5.13;;;;;;;;;;5074268;28;20244;-79
2022/08/20 08:43:21;;;;;;;5.10;4.70;;;;;;;;;;5074579;28;20260;-80
2022/08/20 08:45:52;;;;;;;7.35;5.28;;;;;;;;;;5074099;28;20668;-80
2022/08/20 08:48:20;;;;;;;6.53;5.95;;;;;;;;;;5075289;28;20189;-80
2022/08/20 08:50:52;;;;;;;6.75;6.10;;;;;;;;;;5074070;28;20245;-80
2022/08/20 08:53:22;;;;;;;9.15;7.60;;;;;;;;;;5075004;28;20232;-80
2022/08/20 08:55:49;;;;;;;8.30;7.60;;;;;;;;;;5074945;28;20233;-79
2022/08/20 08:58:16;;;;;;;7.05;6.45;;;;;;;;;;5075391;28;20228;-80
2022/08/20 09:00:43;;;;;;;7.13;6.43;;;;;;;;;;5075666;28;20901;-80
2022/08/20 09:03:12;;;;;;;7.53;6.70;;;;;;;;;;5059841;28;20214;-83
2022/08/20 09:05:42;;;;;;;7.30;6.60;;;;;;;;;;5056703;28;20242;-84
2022/08/20 09:08:11;;;;;;;6.88;6.13;;;;;;;;;;5054996;28;20206;-84
2022/08/20 09:10:39;;;;;;;12.25;6.05;;;;;;;;;;5053490;28;20241;-83
2022/08/20 09:13:07;;;;;;;6.57;5.97;;;;;;;;;;5054287;28;20226;-84
2022/08/20 09:15:34;;;;;;;6.50;5.90;;;;;;;;;;5055016;28;20229;-84
2022/08/20 09:18:01;;;;;;;6.70;6.10;;;;;;;;;;5057592;28;20210;-83
2022/08/20 09:20:29;;;;;;;5.70;5.20;;;;;;;;;;5068675;28;20236;-84
2022/08/20 09:22:56;;;;;;;6.45;5.85;;;;;;;;;;5081974;28;20204;-83
2022/08/20 09:25:23;;;;;;;5.28;4.88;;;;;;;;;;5074275;28;20240;-86
2022/08/20 09:27:51;;;;;;;5.10;4.60;;;;;;;;;;5074794;28;20201;-84
2022/08/20 09:30:19;;;;;;;5.60;4.88;;;;;;;;;;5073679;28;20241;-87
2022/08/20 09:32:46;;;;;;;4.40;4.10;;;;;;;;;;5072685;28;20208;-83
2022/08/20 09:35:14;;;;;;;4.30;3.40;;;;;;;;;;5071760;28;20237;-84
2022/08/20 09:37:41;;;;;;;6.00;3.90;;;;;;;;;;5073334;28;20225;-83
2022/08/20 09:40:09;;;;;;;3.80;3.40;;;;;;;;;;5072479;28;20233;-84
2022/08/20 09:42:37;;;;;;;3.67;3.38;;;;;;;;;;5073291;28;20213;-81
2022/08/20 09:45:06;;;;;;;4.72;3.45;;;;;;;;;;5074023;28;20240;-80
2022/08/20 09:47:33;;;;;;;3.35;2.60;;;;;;;;;;5075766;28;20239;-85
2022/08/20 09:50:00;;;;;;;2.30;2.10;;;;;;;;;;5086360;28;20233;-85
2022/08/20 09:52:28;;;;;;;2.33;2.13;;;;;;;;;;5075584;28;20541;-81
2022/08/20 09:54:57;;;;;;;2.97;2.50;;;;;;;;;;5068222;28;20245;-82
2022/08/20 09:57:25;;;;;;;2.50;2.30;;;;;;;;;;5088108;28;20201;-85
2022/08/20 09:59:53;;;;;;;3.03;2.75;;;;;;;;;;5076057;28;20198;-85
2022/08/20 10:02:22;;;;;;;3.17;2.97;;;;;;;;;;5076138;28;20194;-85
2022/08/20 10:04:49;;;;;;;2.13;2.03;;;;;;;;;;5075726;28;20221;-82
2022/08/20 10:07:16;;;;;;;2.05;1.90;;;;;;;;;;5076386;28;20665;-82
2022/08/20 10:09:43;;;;;;;1.92;1.83;;;;;;;;;;5075791;28;20205;-81
2022/08/20 10:12:10;;;;;;;1.75;1.65;;;;;;;;;;5075713;28;20608;-84
2022/08/20 10:14:37;;;;;;;2.38;1.90;;;;;;;;;;5075280;28;20230;-82
2022/08/20 10:17:04;;;;;;;1.75;1.65;;;;;;;;;;5077369;28;20204;-84
2022/08/20 10:19:33;;;;;;;1.45;1.35;;;;;;;;;;5075606;28;20201;-84
2022/08/20 10:22:00;;;;;;;1.35;1.25;;;;;;;;;;5075694;28;20213;-83
2022/08/20 10:24:27;;;;;;;1.88;1.70;;;;;;;;;;5075667;28;20322;-83
2022/08/20 10:26:55;;;;;;;1.23;1.23;;;;;;;;;;5075847;28;20232;-84
2022/08/20 10:29:22;;;;;;;2.10;1.63;;;;;;;;;;5075653;28;20649;-82
2022/08/20 10:31:49;;;;;;;1.52;1.33;;;;;;;;;;5080209;28;20224;-83
2022/08/20 10:34:17;;;;;;;1.70;1.55;;;;;;;;;;5082525;28;20234;-83
2022/08/20 10:36:46;;;;;;;1.55;1.45;;;;;;;;;;5059556;28;20718;-84
2022/08/20 10:39:13;;;;;;;1.85;1.52;;;;;;;;;;5074962;28;20204;-83
2022/08/20 10:41:41;;;;;;;1.38;1.27;;;;;;;;;;5085023;28;20228;-83
2022/08/20 10:44:08;;;;;;;1.63;1.52;;;;;;;;;;5095301;28;20228;-83
2022/08/20 10:46:35;;;;;;;1.70;1.60;;;;;;;;;;5074056;28;20233;-84
2022/08/20 10:49:03;;;;;;;1.20;1.20;;;;;;;;;;5074737;28;20205;-83
2022/08/20 10:51:30;;;;;;;1.40;1.30;;;;;;;;;;5074608;28;20232;-84
2022/08/20 10:53:58;;;;;;;1.17;1.17;;;;;;;;;;5074713;28;20229;-84
2022/08/20 10:56:26;;;;;;;1.20;1.20;;;;;;;;;;5074237;28;20232;-81
2022/08/20 10:58:53;;;;;;;1.58;1.50;;;;;;;;;;5075943;28;20208;-83
2022/08/20 11:01:20;;;;;;;1.30;1.20;;;;;;;;;;5074886;28;20237;-80
2022/08/20 11:03:47;;;;;;;1.20;1.10;;;;;;;;;;5077229;28;20244;-81
2022/08/20 11:06:14;;;;;;;0.85;0.70;;;;;;;;;;5075138;28;20229;-84
2022/08/20 11:08:42;;;;;;;1.20;1.10;;;;;;;;;;5075590;28;20566;-83
2022/08/20 11:11:10;;;;;;;1.23;1.05;;;;;;;;;;5079460;28;20240;-83
2022/08/20 11:13:37;;;;;;;0.70;0.70;;;;;;;;;;5076889;28;20604;-83
2022/08/20 11:16:05;;;;;;;4.80;1.08;;;;;;;;;;5107334;28;20221;-82
2022/08/20 11:18:32;;;;;;;1.30;1.20;;;;;;;;;;5093865;28;20189;-82
2022/08/20 11:21:00;;;;;;;0.80;0.80;;;;;;;;;;5099619;28;20250;-83
2022/08/20 11:23:27;;;;;;;1.00;1.00;;;;;;;;;;5098915;28;20220;-84
2022/08/20 11:25:54;;;;;;;0.85;0.85;;;;;;;;;;5097746;28;20225;-82
2022/08/20 11:28:22;;;;;;;0.95;0.95;;;;;;;;;;5096773;28;20182;-83
2022/08/20 11:30:49;;;;;;;1.00;0.88;;;;;;;;;;5087190;28;20297;-81
2022/08/20 11:33:17;;;;;;;0.90;0.90;;;;;;;;;;5092403;28;20214;-83
2022/08/20 11:35:45;;;;;;;0.80;0.80;;;;;;;;;;5089907;28;20255;-87
2022/08/20 11:38:12;;;;;;;0.93;0.93;;;;;;;;;;5087341;28;20560;-86
2022/08/20 11:40:39;;;;;;;1.02;1.00;;;;;;;;;;5102556;28;20236;-86
2022/08/20 11:43:06;;;;;;;0.93;0.93;;;;;;;;;;5088359;28;20712;-84
2022/08/20 11:45:34;;;;;;;0.63;0.63;;;;;;;;;;5101129;28;20221;-87
2022/08/20 11:48:01;;;;;;;0.77;0.77;;;;;;;;;;5080677;28;20197;-86
2022/08/20 11:50:28;;;;;;;1.00;0.90;;;;;;;;;;5075423;28;20221;-86
2022/08/20 11:52:56;;;;;;;2.88;1.00;;;;;;;;;;5082143;28;20193;-87
2022/08/20 11:55:23;;;;;;;1.08;1.08;;;;;;;;;;5093976;28;20651;-85
2022/08/20 11:57:50;;;;;;;0.80;0.80;;;;;;;;;;5094205;28;20285;-86
2022/08/20 12:00:18;;;;;;;0.70;0.70;;;;;;;;;;5088961;28;20237;-85
2022/08/20 12:02:47;;;;;;;0.70;0.70;;;;;;;;;;5073129;28;20197;-86
2022/08/20 12:05:14;;;;;;;0.70;0.70;;;;;;;;;;5073306;28;20647;-87
2022/08/20 12:07:41;;;;;;;0.55;0.55;;;;;;;;;;5072702;28;20296;-88
2022/08/20 12:10:09;;;;;;;0.60;0.60;;;;;;;;;;5072297;28;20233;-87
2022/08/20 12:12:37;;;;;;;0.70;0.70;;;;;;;;;;5067178;28;20202;-88
2022/08/20 12:15:05;;;;;;;0.43;0.43;;;;;;;;;;5064150;28;20233;-85
2022/08/20 12:17:33;;;;;;;0.70;0.70;;;;;;;;;;5053741;28;20214;-85
2022/08/20 12:20:03;;;;;;;0.52;0.50;;;;;;;;;;5053500;28;20230;-88
2022/08/20 12:22:30;;;;;;;0.50;0.50;;;;;;;;;;5056214;28;20210;-87
2022/08/20 12:24:57;;;;;;;0.50;0.50;;;;;;;;;;5073047;28;20689;-87
2022/08/20 12:27:25;;;;;;;1.00;0.35;;;;;;;;;;5078199;28;20205;-87
2022/08/20 12:29:53;;;;;;;0.40;0.38;;;;;;;;;;5076598;28;20297;-89
2022/08/20 12:32:20;;;;;;;0.43;0.30;;;;;;;;;;5078298;28;20204;-87
2022/08/20 12:34:47;;;;;;;0.20;0.20;;;;;;;;;;5078152;28;20229;-89
2022/08/20 12:37:17;;;;;;;0.30;0.30;;;;;;;;;;5076310;28;20209;-88
2022/08/20 12:39:45;;;;;;;0.30;0.30;;;;;;;;;;5074982;28;20205;-87
2022/08/20 12:42:13;;;;;;;0.30;0.30;;;;;;;;;;5077327;28;20565;-85
2022/08/20 12:44:40;;;;;;;0.40;0.40;;;;;;;;;;5086792;28;20240;-86
2022/08/20 12:47:08;;;;;;;0.50;0.40;;;;;;;;;;5077899;28;20209;-87
2022/08/20 12:49:36;;;;;;;2.55;0.32;;;;;;;;;;5073572;28;20673;-87
2022/08/20 12:52:03;;;;;;;0.47;0.30;;;;;;;;;;5069550;28;20551;-88
2022/08/20 12:54:32;;;;;;;0.35;0.30;;;;;;;;;;5067371;28;20258;-85
2022/08/20 12:56:59;;;;;;;3.60;0.60;;;;;;;;;;5073701;28;20236;-88
2022/08/20 12:59:26;;;;;;;0.20;0.20;;;;;;;;;;5065690;28;20206;-87
2022/08/20 13:01:54;;;;;;;0.20;0.20;;;;;;;;;;5057872;28;20224;-87
2022/08/20 13:04:21;;;;;;;0.40;0.40;;;;;;;;;;5067684;28;20225;-89
2022/08/20 13:06:48;;;;;;;0.35;0.35;;;;;;;;;;5063723;28;20229;-91
2022/08/20 13:09:15;;;;;;;1.17;0.40;;;;;;;;;;5071976;28;20224;-87
2022/08/20 13:11:43;;;;;;;0.55;0.30;;;;;;;;;;5056484;28;20257;-85
2022/08/20 13:14:11;;;;;;;0.28;0.28;;;;;;;;;;5057074;28;20233;-82
2022/08/20 13:16:38;;;;;;;0.65;0.40;;;;;;;;;;5063547;28;20233;-82
2022/08/20 13:19:05;;;;;;;1.38;0.38;;;;;;;;;;5055545;28;20206;-82
2022/08/20 13:21:32;;;;;;;1.30;1.00;;;;;;;;;;5078147;28;20240;-83
2022/08/20 13:23:59;;;;;;;0.50;0.40;;;;;;;;;;5079953;28;20220;-83
2022/08/20 13:26:26;;;;;;;0.63;0.40;;;;;;;;;;5076671;28;20236;-84
2022/08/20 13:28:55;;;;;;;0.35;0.30;;;;;;;;;;5078237;28;20193;-84
2022/08/20 13:31:22;;;;;;;0.50;0.50;;;;;;;;;;5081537;28;20240;-85
2022/08/20 13:33:49;;;;;;;0.65;0.40;;;;;;;;;;5081112;28;20236;-83
2022/08/20 13:36:16;;;;;;;0.65;0.45;;;;;;;;;;5078823;28;20241;-86
2022/08/20 13:38:43;;;;;;;0.77;0.40;;;;;;;;;;5085834;28;20201;-84
2022/08/20 13:41:10;;;;;;;1.00;0.60;;;;;;;;;;5082080;28;20248;-85
2022/08/20 13:43:38;;;;;;;0.57;0.57;;;;;;;;;;5081532;28;20225;-85
2022/08/20 13:46:06;;;;;;;1.10;0.40;;;;;;;;;;5080615;28;20237;-85
2022/08/20 13:48:33;;;;;;;0.93;0.40;;;;;;;;;;5074270;28;20222;-85
2022/08/20 13:51:00;;;;;;;0.50;0.50;;;;;;;;;;5062127;28;20237;-85
2022/08/20 13:53:28;;;;;;;1.25;1.10;;;;;;;;;;5101459;28;20313;-85
2022/08/20 13:55:55;;;;;;;1.63;0.95;;;;;;;;;;5100346;28;20247;-85
2022/08/20 13:58:22;;;;;;;1.05;1.05;;;;;;;;;;5093948;28;20208;-84
2022/08/20 14:00:49;;;;;;;0.98;0.98;;;;;;;;;;5078262;28;20287;-84
2022/08/20 14:03:18;;;;;;;1.30;1.20;;;;;;;;;;5076270;28;20229;-84
2022/08/20 14:05:45;;;;;;;1.27;0.98;;;;;;;;;;5074096;28;20229;-84
2022/08/20 14:08:13;;;;;;;1.48;1.30;;;;;;;;;;5075557;28;20209;-85
2022/08/20 14:10:41;;;;;;;1.02;0.98;;;;;;;;;;5074096;28;20264;-84
2022/08/20 14:13:09;;;;;;;2.45;0.95;;;;;;;;;;5070921;28;20221;-84
2022/08/20 14:15:36;;;;;;;0.90;0.90;;;;;;;;;;5067800;28;20236;-85
2022/08/20 14:18:03;;;;;;;1.15;1.13;;;;;;;;;;5078245;28;20215;-87
2022/08/20 14:20:33;;;;;;;1.42;1.30;;;;;;;;;;5065713;28;20222;-86
2022/08/20 14:23:01;;;;;;;1.13;1.08;;;;;;;;;;5070898;28;20202;-86
2022/08/20 14:25:28;;;;;;;1.25;1.15;;;;;;;;;;5075802;28;20711;-84
2022/08/20 14:27:55;;;;;;;1.15;0.85;;;;;;;;;;5085394;28;20205;-82
2022/08/20 14:30:24;;;;;;;1.77;1.20;;;;;;;;;;5086694;28;20241;-84
2022/08/20 14:32:52;;;;;;;1.40;1.10;;;;;;;;;;5088359;28;20209;-83
2022/08/20 14:35:19;;;;;;;1.35;1.25;;;;;;;;;;5084306;28;20245;-85
2022/08/20 14:37:50;;;;;;;1.35;1.25;;;;;;;;;;5083819;28;20205;-84
2022/08/20 14:40:18;;;;;;;1.70;1.60;;;;;;;;;;5087772;28;20237;-83
2022/08/20 14:42:48;;;;;;;1.30;1.30;;;;;;;;;;5084839;28;20205;-83
2022/08/20 14:45:15;;;;;;;1.52;1.38;;;;;;;;;;5084440;28;20236;-84
2022/08/20 14:47:43;;;;;;;1.23;1.23;;;;;;;;;;5082818;28;20220;-83
2022/08/20 14:50:12;;;;;;;1.13;1.10;;;;;;;;;;5086841;28;20240;-85
2022/08/20 14:52:39;;;;;;;1.45;1.27;;;;;;;;;;5095512;28;20201;-86
2022/08/20 14:55:10;;;;;;;1.23;1.13;;;;;;;;;;5097618;28;20275;-86
2022/08/20 14:57:38;;;;;;;2.30;1.30;;;;;;;;;;5093588;28;20201;-85